Time;durP1;ratioP1;P1;durP2;ratioP2;P2;SDS_P1;SDS_P2;PMS_P1;PMS_P2;Temp;Humidity;BMP_temperature;BMP_pressure;BME280_temperature;BME280_humidity;BME280_pressure;Samples;Min_cycle;Max_cycle;Signal;HPM_P1;HPM_P2
2021/12/09 00:02:24;;;;;;;35.60;19.00;;;;;;;-0.00;65.86;98297.89;212949;1322;139775;-59
2021/12/09 00:07:28;;;;;;;35.00;21.10;;;;;;;0.00;65.83;98287.25;212705;1323;140023;-57
2021/12/09 00:12:31;;;;;;;35.10;20.30;;;;;;;0.06;66.02;98278.87;212930;1326;138993;-58
2021/12/09 00:17:36;;;;;;;38.30;20.60;;;;;;;0.12;66.11;98281.45;212738;1320;139123;-55
2021/12/09 00:22:39;;;;;;;34.40;19.80;;;;;;;0.10;65.89;98277.34;212643;1326;138882;-54
2021/12/09 00:27:43;;;;;;;36.20;20.60;;;;;;;0.05;65.89;98281.17;212805;1320;139776;-55
2021/12/09 00:32:46;;;;;;;38.70;21.20;;;;;;;0.05;65.91;98287.08;213206;1326;139000;-55
2021/12/09 00:38:06;;;;;;;37.20;20.50;;;;;;;0.07;65.96;98289.98;212870;1320;138885;-61
2021/12/09 00:43:09;;;;;;;37.60;21.00;;;;;;;0.08;65.99;98282.09;212733;1323;138791;-57
2021/12/09 00:48:12;;;;;;;40.00;22.00;;;;;;;0.08;66.05;98277.04;213150;1319;139309;-58
2021/12/09 00:53:16;;;;;;;38.10;19.60;;;;;;;0.05;65.94;98270.16;212861;1321;139513;-59
2021/12/09 00:58:19;;;;;;;33.50;19.50;;;;;;;-0.03;65.74;98258.92;213309;1320;139336;-59
2021/12/09 01:03:26;;;;;;;34.20;19.60;;;;;;;-0.05;66.02;98248.52;212578;1322;138950;-59
2021/12/09 01:08:29;;;;;;;33.20;19.30;;;;;;;-0.05;65.94;98250.78;213744;1322;141486;-65
2021/12/09 01:13:33;;;;;;;35.40;19.50;;;;;;;-0.02;65.97;98246.16;213292;1319;140402;-65
2021/12/09 01:18:37;;;;;;;36.50;20.70;;;;;;;0.07;66.26;98244.47;212797;1319;141145;-61
2021/12/09 01:23:41;;;;;;;36.00;20.80;;;;;;;0.17;66.32;98227.75;212255;1321;141071;-56
2021/12/09 01:28:50;;;;;;;35.80;20.60;;;;;;;0.21;66.07;98241.02;212520;1326;139178;-55
2021/12/09 01:33:59;;;;;;;33.60;20.40;;;;;;;0.25;66.04;98229.76;212455;1323;139444;-53
2021/12/09 01:39:08;;;;;;;37.70;20.90;;;;;;;0.24;65.93;98220.20;213183;1323;139124;-60
2021/12/09 01:44:11;;;;;;;34.90;19.70;;;;;;;0.21;65.96;98218.71;212675;1326;139329;-57
2021/12/09 01:49:14;;;;;;;40.10;21.80;;;;;;;0.18;65.86;98217.08;213002;1320;139524;-56
2021/12/09 01:54:18;;;;;;;42.30;21.70;;;;;;;0.16;65.99;98205.45;213125;1321;139162;-56
2021/12/09 01:59:21;;;;;;;39.10;21.50;;;;;;;0.14;65.86;98204.11;213249;1322;139328;-54
2021/12/09 02:04:25;;;;;;;35.50;20.50;;;;;;;0.16;66.07;98207.02;212407;1328;139080;-54
2021/12/09 02:09:28;;;;;;;34.30;19.00;;;;;;;0.18;66.16;98208.52;213366;1319;139114;-62
2021/12/09 02:14:32;;;;;;;39.80;21.60;;;;;;;0.18;66.11;98215.83;213086;1326;139560;-63
2021/12/09 02:19:35;;;;;;;39.40;21.30;;;;;;;0.11;65.76;98212.23;213693;1323;139335;-56
2021/12/09 02:24:38;;;;;;;40.00;20.80;;;;;;;0.06;65.91;98209.10;212721;1325;139959;-59
2021/12/09 02:29:42;;;;;;;37.30;21.00;;;;;;;0.10;66.05;98212.10;212453;1322;140594;-59
2021/12/09 02:34:45;;;;;;;38.40;21.90;;;;;;;0.17;66.18;98201.22;212968;1324;140178;-56
2021/12/09 02:39:49;;;;;;;39.20;22.20;;;;;;;0.21;66.27;98201.60;212230;1328;139783;-60
2021/12/09 02:44:55;;;;;;;37.80;21.60;;;;;;;0.25;66.22;98201.66;213422;1324;139880;-56
2021/12/09 02:49:59;;;;;;;38.50;21.90;;;;;;;0.25;66.13;98189.80;213147;1325;138256;-56
2021/12/09 02:55:03;;;;;;;38.80;21.30;;;;;;;0.27;66.10;98186.77;212934;1326;138892;-56
2021/12/09 03:00:09;;;;;;;38.20;21.20;;;;;;;0.24;66.04;98181.64;212847;1325;153643;-61
2021/12/09 03:05:12;;;;;;;39.80;20.80;;;;;;;0.22;66.08;98189.89;213308;1320;139378;-57
2021/12/09 03:10:25;;;;;;;45.80;23.70;;;;;;;0.19;66.10;98193.84;212787;1325;139876;-56
2021/12/09 03:15:28;;;;;;;40.90;21.80;;;;;;;0.21;66.14;98201.27;213718;1320;235390;-62
2021/12/09 03:20:31;;;;;;;36.20;20.60;;;;;;;0.23;66.26;98213.40;213592;1322;138939;-58
2021/12/09 03:25:34;;;;;;;35.80;20.30;;;;;;;0.23;66.29;98218.81;212828;1326;139353;-59
2021/12/09 03:30:38;;;;;;;37.70;21.00;;;;;;;0.20;66.08;98214.04;213014;1323;139398;-59
2021/12/09 03:35:41;;;;;;;34.80;18.80;;;;;;;0.14;65.93;98217.89;212966;1320;140887;-59
2021/12/09 03:40:47;;;;;;;35.30;19.50;;;;;;;0.13;65.98;98214.63;212957;1326;140136;-58
2021/12/09 03:45:54;;;;;;;36.10;20.10;;;;;;;0.18;66.14;98202.93;212478;1326;138959;-60
2021/12/09 03:50:58;;;;;;;40.40;22.00;;;;;;;0.27;66.26;98200.71;212768;1323;140301;-58
2021/12/09 03:56:01;;;;;;;40.60;21.50;;;;;;;0.30;66.22;98195.56;212487;1319;139418;-56
2021/12/09 04:01:04;;;;;;;44.60;23.90;;;;;;;0.32;66.23;98197.58;213050;1320;138877;-59
2021/12/09 04:06:07;;;;;;;44.40;23.60;;;;;;;0.34;66.28;98203.09;212692;1320;139190;-57
2021/12/09 04:11:10;;;;;;;49.60;25.80;;;;;;;0.34;66.03;98212.70;212944;1320;139038;-60
2021/12/09 04:16:14;;;;;;;57.50;27.20;;;;;;;0.33;66.19;98215.33;213200;1320;140734;-57
2021/12/09 04:21:17;;;;;;;52.40;26.20;;;;;;;0.36;66.30;98210.55;213775;1323;141506;-55
2021/12/09 04:26:20;;;;;;;54.50;25.20;;;;;;;0.35;66.30;98210.91;212844;1325;138891;-60
2021/12/09 04:31:23;;;;;;;47.10;24.10;;;;;;;0.35;66.31;98209.52;213158;1325;140743;-57
2021/12/09 04:36:27;;;;;;;51.00;24.70;;;;;;;0.35;66.36;98210.20;212563;1327;140079;-63
2021/12/09 04:41:30;;;;;;;42.50;22.40;;;;;;;0.36;66.28;98207.22;213283;1319;138944;-60
2021/12/09 04:46:35;;;;;;;58.00;30.80;;;;;;;0.45;67.01;98204.82;213169;1323;139997;-63
2021/12/09 04:51:39;;;;;;;42.10;21.70;;;;;;;0.56;66.42;98204.06;212409;1326;139296;-64
2021/12/09 04:56:42;;;;;;;46.40;22.70;;;;;;;0.52;66.10;98200.90;212590;1319;139770;-57
2021/12/09 05:01:49;;;;;;;45.70;24.10;;;;;;;0.55;66.45;98205.49;212691;1326;139567;-69
2021/12/09 05:06:52;;;;;;;45.30;22.70;;;;;;;0.57;66.15;98209.27;212360;1320;139815;-58
2021/12/09 05:11:55;;;;;;;43.70;21.90;;;;;;;0.54;66.09;98197.52;212666;1323;139716;-60
2021/12/09 05:17:00;;;;;;;40.80;20.80;;;;;;;0.48;65.91;98192.50;212574;1320;140121;-63
2021/12/09 05:22:04;;;;;;;210.40;120.10;;;;;;;0.42;65.98;98172.27;213660;1318;139466;-59
2021/12/09 05:27:08;;;;;;;39.30;22.30;;;;;;;0.51;66.62;98170.41;213489;1320;139466;-60
2021/12/09 05:32:13;;;;;;;40.50;22.70;;;;;;;0.52;66.13;98193.77;213280;1326;140364;-62
2021/12/09 05:37:24;;;;;;;34.70;20.60;;;;;;;0.42;65.88;98181.35;212722;1320;138945;-57
2021/12/09 05:42:27;;;;;;;36.90;20.40;;;;;;;0.36;66.06;98157.99;212977;1325;140334;-59
2021/12/09 05:47:31;;;;;;;37.40;19.80;;;;;;;0.34;66.02;98172.76;212817;1323;139094;-62
2021/12/09 05:52:39;;;;;;;34.90;18.50;;;;;;;0.29;65.89;98180.58;212824;1325;140400;-63
2021/12/09 05:57:46;;;;;;;39.20;20.80;;;;;;;0.26;65.92;98202.86;213495;1320;140683;-58
2021/12/09 06:02:50;;;;;;;32.50;19.70;;;;;;;0.26;66.11;98218.73;213761;1323;139312;-67
2021/12/09 06:07:53;;;;;;;38.20;19.50;;;;;;;0.24;66.00;98201.51;212830;1319;139643;-58
2021/12/09 06:12:56;;;;;;;33.40;18.50;;;;;;;0.20;66.00;98178.78;213360;1319;140351;-62
2021/12/09 06:17:59;;;;;;;32.80;18.10;;;;;;;0.20;66.13;98187.00;213195;1320;139173;-61
2021/12/09 06:23:03;;;;;;;35.10;19.70;;;;;;;0.25;66.08;98196.60;213472;1320;140116;-58
2021/12/09 06:28:07;;;;;;;32.20;19.50;;;;;;;0.28;66.05;98203.84;212634;1320;139889;-60
2021/12/09 06:33:10;;;;;;;29.50;17.50;;;;;;;0.28;65.95;98194.08;212712;1320;138783;-61
2021/12/09 06:38:16;;;;;;;31.80;17.80;;;;;;;0.26;65.93;98211.39;212900;1322;140172;-58
2021/12/09 06:43:19;;;;;;;;;;;;;;;0.24;65.93;98228.91;212996;1327;140444;-57
2021/12/09 06:48:22;;;;;;;34.60;18.90;;;;;;;0.18;66.05;98240.08;213028;1320;125449;-66
2021/12/09 06:53:25;;;;;;;33.60;18.70;;;;;;;0.17;66.10;98228.44;212927;1324;139236;-57
2021/12/09 06:58:28;;;;;;;35.90;20.10;;;;;;;0.18;66.27;98235.73;213214;1320;139040;-61
2021/12/09 07:03:32;;;;;;;34.60;19.70;;;;;;;0.19;66.14;98249.98;213168;1319;140176;-61
2021/12/09 07:08:41;;;;;;;34.30;19.50;;;;;;;0.19;66.18;98253.66;213162;1323;139699;-59
2021/12/09 07:13:46;;;;;;;33.60;19.30;;;;;;;0.18;66.12;98246.89;213258;1319;139992;-60
2021/12/09 07:18:50;;;;;;;35.90;19.40;;;;;;;0.16;66.06;98231.42;212768;1322;140126;-66
2021/12/09 07:23:53;;;;;;;36.90;19.60;;;;;;;0.16;66.21;98225.51;212469;1319;139789;-65
2021/12/09 07:28:57;;;;;;;31.00;18.00;;;;;;;0.21;66.31;98220.27;212967;1324;141531;-61
2021/12/09 07:34:00;;;;;;;33.00;19.10;;;;;;;0.30;66.42;98231.31;212506;1324;140566;-59
2021/12/09 07:39:03;;;;;;;36.90;21.10;;;;;;;0.37;66.30;98233.02;213383;1322;139334;-58
2021/12/09 07:44:07;;;;;;;36.40;20.80;;;;;;;0.40;66.26;98222.96;213198;1320;138970;-63
2021/12/09 07:49:10;;;;;;;39.10;21.00;;;;;;;0.46;66.41;98234.80;213280;1322;140360;-59
2021/12/09 07:54:13;;;;;;;37.40;20.40;;;;;;;0.48;66.33;98220.23;212971;1322;140051;-64
2021/12/09 07:59:16;;;;;;;36.00;20.30;;;;;;;0.48;66.11;98222.14;212936;1319;139141;-59
2021/12/09 08:04:19;;;;;;;35.70;20.30;;;;;;;0.46;66.14;98231.10;213610;1320;140005;-58
2021/12/09 08:09:23;;;;;;;35.60;20.00;;;;;;;0.44;66.19;98235.90;212623;1322;139423;-59
2021/12/09 08:14:26;;;;;;;36.80;19.90;;;;;;;0.42;66.23;98221.66;212881;1322;140441;-59
2021/12/09 08:19:30;;;;;;;39.80;20.30;;;;;;;0.40;66.24;98232.38;213770;1320;139888;-58
2021/12/09 08:24:33;;;;;;;36.50;20.40;;;;;;;0.38;66.27;98225.48;213037;1320;139603;-60
2021/12/09 08:29:36;;;;;;;36.90;19.70;;;;;;;0.39;66.24;98212.86;213536;1320;138775;-59
2021/12/09 08:34:39;;;;;;;37.40;20.40;;;;;;;0.42;66.26;98222.04;212574;1324;139997;-62
2021/12/09 08:39:42;;;;;;;37.50;20.60;;;;;;;0.44;66.45;98224.90;212950;1322;139346;-58
2021/12/09 08:44:45;;;;;;;43.20;21.50;;;;;;;0.49;66.64;98231.57;212998;1321;140001;-61
2021/12/09 08:49:48;;;;;;;37.90;19.40;;;;;;;0.60;66.52;98232.55;212699;1322;139926;-67
2021/12/09 08:54:51;;;;;;;38.20;21.10;;;;;;;0.73;66.62;98223.39;212549;1322;140211;-63
2021/12/09 08:59:59;;;;;;;37.00;21.20;;;;;;;0.82;66.67;98226.73;212224;1326;139643;-59
2021/12/09 09:05:04;;;;;;;35.60;20.50;;;;;;;0.88;66.59;98218.48;213075;1324;140797;-63
2021/12/09 09:10:08;;;;;;;40.10;21.30;;;;;;;0.91;66.51;98228.66;213910;1320;139311;-59
2021/12/09 09:15:14;;;;;;;34.20;20.40;;;;;;;0.94;66.42;98235.39;213111;1319;142186;-57
2021/12/09 09:20:20;;;;;;;37.00;21.10;;;;;;;0.93;66.15;98229.44;212988;1319;139006;-58
2021/12/09 09:25:29;;;;;;;36.80;21.50;;;;;;;0.95;66.23;98247.21;213727;1320;139833;-64
2021/12/09 09:30:36;;;;;;;38.90;21.20;;;;;;;0.97;66.29;98204.34;213080;1323;139656;-60
2021/12/09 09:35:42;;;;;;;35.40;20.20;;;;;;;0.97;66.19;98177.09;212615;1323;140847;-61
2021/12/09 09:41:04;;;;;;;36.70;20.00;;;;;;;0.96;66.08;98164.59;212742;1320;139637;-58
2021/12/09 09:46:07;;;;;;;34.00;19.10;;;;;;;0.96;66.32;98122.34;213694;1319;140033;-59
2021/12/09 09:51:10;;;;;;;33.80;20.10;;;;;;;0.97;66.41;98135.89;213084;1322;140253;-59
2021/12/09 09:56:19;;;;;;;33.80;19.70;;;;;;;0.98;66.37;98155.59;213061;1324;140095;-57
2021/12/09 10:01:23;;;;;;;37.50;20.30;;;;;;;1.02;66.42;98134.13;212973;1319;139264;-60
2021/12/09 10:06:26;;;;;;;35.60;20.00;;;;;;;1.09;66.41;98136.48;213178;1319;141137;-57
2021/12/09 10:11:29;;;;;;;32.80;19.60;;;;;;;1.20;66.44;98142.88;212717;1319;139998;-57
2021/12/09 10:16:34;;;;;;;36.40;20.20;;;;;;;1.31;66.63;98138.77;212965;1325;138938;-56
2021/12/09 10:21:37;;;;;;;33.40;20.70;;;;;;;1.42;66.56;98127.52;213288;1319;139370;-61
2021/12/09 10:26:48;;;;;;;40.20;20.10;;;;;;;1.41;66.41;98129.43;212635;1321;139176;-64
2021/12/09 10:32:02;;;;;;;34.80;20.00;;;;;;;1.44;66.25;98109.45;212799;1319;139370;-60
2021/12/09 10:37:13;;;;;;;46.20;25.50;;;;;;;1.50;66.74;98106.39;213615;1322;140289;-61
2021/12/09 10:42:29;;;;;;;36.00;20.90;;;;;;;1.60;66.51;98090.94;212791;1322;139509;-60
2021/12/09 10:47:52;;;;;;;33.30;20.60;;;;;;;1.57;66.28;98100.86;212937;1319;139408;-58
2021/12/09 10:53:04;;;;;;;36.70;21.00;;;;;;;1.54;66.18;98108.12;212824;1319;140374;-61
2021/12/09 10:58:11;;;;;;;327.30;167.80;;;;;;;1.53;66.31;98096.81;212817;1322;140081;-60
2021/12/09 11:03:28;;;;;;;49.00;27.70;;;;;;;1.64;66.91;98089.20;212651;1327;140563;-61
2021/12/09 11:08:37;;;;;;;39.50;21.50;;;;;;;1.65;66.44;98080.95;212642;1323;139448;-60
2021/12/09 11:13:51;;;;;;;34.20;20.00;;;;;;;1.62;66.29;98067.08;212935;1319;146041;-59
2021/12/09 11:19:03;;;;;;;39.30;22.10;;;;;;;1.60;66.39;98070.83;213453;1319;139754;-60
2021/12/09 11:24:17;;;;;;;35.20;20.20;;;;;;;1.62;66.37;98075.46;212400;1319;140751;-60
2021/12/09 11:29:24;;;;;;;36.00;20.50;;;;;;;1.69;66.45;98063.63;213276;1319;139599;-60
2021/12/09 11:34:44;;;;;;;34.50;21.10;;;;;;;1.75;66.46;98055.17;213454;1322;139415;-57
2021/12/09 11:39:48;;;;;;;35.80;20.70;;;;;;;1.79;66.33;98047.85;212848;1319;139656;-58
2021/12/09 11:44:51;;;;;;;32.70;19.70;;;;;;;1.82;66.29;98048.95;212985;1319;140115;-59
2021/12/09 11:49:54;;;;;;;33.30;19.70;;;;;;;1.84;66.26;98057.41;212869;1322;139157;-59
2021/12/09 11:55:02;;;;;;;34.50;19.40;;;;;;;1.83;66.32;98051.52;213176;1325;138655;-62
2021/12/09 12:11:41;;;;;;;33.10;20.30;;;;;;;1.76;66.20;98027.50;212776;1322;139292;-60
2021/12/09 12:22:07;;;;;;;34.80;19.00;;;;;;;1.71;66.24;98003.41;213404;1319;139311;-59
2021/12/09 12:27:50;;;;;;;33.40;19.80;;;;;;;1.69;66.34;98017.29;212347;1322;142410;-61
2021/12/09 12:43:38;;;;;;;38.40;20.40;;;;;;;1.76;66.42;98035.54;212616;1326;140793;-60
2021/12/09 12:53:56;;;;;;;36.10;20.90;;;;;;;1.89;66.45;98031.30;212988;1321;141094;-59
2021/12/09 12:59:13;;;;;;;40.60;21.80;;;;;;;1.93;66.39;98032.89;212202;1331;139257;-61
2021/12/09 13:05:22;;;;;;;40.80;21.20;;;;;;;1.96;66.36;98027.70;213252;1319;140282;-59
2021/12/09 13:10:20;;;;;;;36.20;20.60;;;;;;;1.93;66.27;98031.66;212218;1334;138966;-58
2021/12/09 13:15:30;;;;;;;36.40;20.20;;;;;;;1.88;66.13;98025.40;212618;1321;138676;-59
2021/12/09 13:20:36;;;;;;;36.90;21.30;;;;;;;1.87;66.39;98020.23;213909;1319;138779;-59
2021/12/09 13:26:17;;;;;;;35.00;20.30;;;;;;;1.85;66.31;98017.67;212540;1322;140350;-62
2021/12/09 13:47:53;;;;;;;35.60;20.30;;;;;;;1.80;66.32;98018.94;212621;1326;138775;-61
2021/12/09 13:58:03;;;;;;;37.80;21.20;;;;;;;1.77;66.21;98024.67;212281;1330;139750;-59
2021/12/09 14:03:18;;;;;;;34.70;19.70;;;;;;;1.77;66.27;98020.48;213778;1319;140167;-58
2021/12/09 14:08:27;;;;;;;39.40;21.80;;;;;;;1.80;66.29;98029.09;212899;1325;138980;-59
2021/12/09 14:13:35;;;;;;;547.50;327.70;;;;;;;1.86;66.49;98031.64;212491;1320;139198;-58
2021/12/09 14:19:02;;;;;;;44.50;25.30;;;;;;;1.96;66.72;98031.19;213357;1321;140486;-60
2021/12/09 14:24:16;;;;;;;36.30;22.90;;;;;;;1.98;66.32;98007.31;213585;1319;139511;-60
2021/12/09 14:29:20;;;;;;;38.90;22.70;;;;;;;1.94;66.12;98008.56;213094;1325;138820;-62
2021/12/09 14:34:25;;;;;;;37.90;22.80;;;;;;;1.89;66.09;98006.31;212703;1320;140426;-61
2021/12/09 14:39:29;;;;;;;41.20;22.90;;;;;;;1.84;66.17;98019.81;212624;1320;138782;-62
2021/12/09 14:44:33;;;;;;;40.70;22.70;;;;;;;1.82;66.18;98020.45;212939;1323;139706;-60
2021/12/09 14:49:51;;;;;;;42.60;23.70;;;;;;;1.78;66.11;98020.63;212663;1326;141414;-60
2021/12/09 14:55:20;;;;;;;40.60;22.80;;;;;;;1.73;66.29;98009.83;212153;1328;140257;-59
2021/12/09 15:00:55;;;;;;;41.70;23.20;;;;;;;1.66;66.15;98015.17;213144;1322;138991;-60
2021/12/09 15:05:59;;;;;;;43.40;24.10;;;;;;;1.62;66.36;98016.02;212555;1323;140502;-63
2021/12/09 15:11:09;;;;;;;44.20;24.10;;;;;;;1.58;66.17;98015.50;213110;1319;139595;-61
2021/12/09 15:16:17;;;;;;;42.20;23.70;;;;;;;1.52;66.29;98022.23;212360;1330;139369;-61
2021/12/09 15:21:30;;;;;;;38.90;22.60;;;;;;;1.50;66.38;98010.62;212495;1328;140138;-59
2021/12/09 15:26:36;;;;;;;129.80;67.90;;;;;;;1.63;67.10;98015.30;213064;1322;139134;-58
2021/12/09 15:31:41;;;;;;;44.20;24.40;;;;;;;1.88;67.05;98007.40;212892;1320;139442;-62
2021/12/09 15:37:05;;;;;;;42.50;24.80;;;;;;;1.85;66.52;97996.49;213847;1320;139221;-58
2021/12/09 15:42:12;;;;;;;45.00;25.10;;;;;;;1.78;66.31;97994.37;212579;1326;139086;-59
2021/12/09 15:47:25;;;;;;;47.20;26.50;;;;;;;1.74;66.34;97986.52;212665;1320;139211;-59
2021/12/09 15:52:42;;;;;;;45.60;25.00;;;;;;;1.69;66.28;97980.45;213365;1324;138399;-61
2021/12/09 15:57:48;;;;;;;236.80;118.00;;;;;;;1.70;66.94;97986.14;212466;1327;139176;-58
2021/12/09 16:02:51;;;;;;;50.20;28.50;;;;;;;2.03;67.21;97975.23;212362;1326;139538;-59
2021/12/09 16:07:54;;;;;;;49.40;26.40;;;;;;;1.95;66.34;97968.61;212506;1320;138841;-58
2021/12/09 16:12:58;;;;;;;47.50;26.50;;;;;;;1.81;66.16;97973.59;212793;1323;139191;-59
2021/12/09 16:18:01;;;;;;;47.00;26.20;;;;;;;1.68;66.07;97970.30;212167;1332;140253;-62
2021/12/09 16:23:05;;;;;;;52.30;28.50;;;;;;;1.58;66.07;97973.55;213513;1319;138477;-60
2021/12/09 16:28:08;;;;;;;37.50;19.60;;;;;;;1.51;66.00;97983.13;212624;1326;138895;-62
2021/12/09 16:33:11;;;;;;;47.90;27.00;;;;;;;1.45;66.27;97987.77;213132;1319;141549;-59
2021/12/09 16:38:15;;;;;;;156.00;86.80;;;;;;;1.41;66.37;97998.21;212712;1320;138829;-58
2021/12/09 16:43:27;;;;;;;54.20;27.80;;;;;;;1.59;67.25;98003.91;213507;1322;139906;-60
2021/12/09 16:48:33;;;;;;;50.40;27.00;;;;;;;1.77;66.80;98008.40;212450;1326;139804;-59
2021/12/09 16:53:45;;;;;;;196.80;120.60;;;;;;;1.75;66.44;98012.70;212947;1322;139321;-60
2021/12/09 16:58:58;;;;;;;57.20;29.60;;;;;;;1.84;66.78;98032.75;213304;1319;139249;-58
2021/12/09 17:04:08;;;;;;;348.30;188.70;;;;;;;1.84;66.47;98051.81;214018;1319;138960;-60
2021/12/09 17:09:13;;;;;;;62.50;30.70;;;;;;;1.87;66.53;98049.23;213244;1325;139357;-58
2021/12/09 17:14:18;;;;;;;58.80;29.40;;;;;;;1.82;66.20;98042.83;212804;1322;139173;-58
2021/12/09 17:19:22;;;;;;;63.80;29.60;;;;;;;1.72;66.09;98035.71;213449;1319;138524;-58
2021/12/09 17:24:25;;;;;;;58.80;29.30;;;;;;;1.61;66.07;98029.35;212431;1326;138779;-60
2021/12/09 17:29:29;;;;;;;58.50;29.30;;;;;;;1.52;66.16;98014.55;213139;1319;139143;-59
2021/12/09 17:34:33;;;;;;;94.80;51.80;;;;;;;1.46;66.58;97999.23;212978;1320;139370;-58
2021/12/09 17:39:37;;;;;;;70.90;33.90;;;;;;;1.71;67.29;98000.98;213003;1326;139040;-59
2021/12/09 17:44:41;;;;;;;73.70;32.90;;;;;;;1.78;66.95;98002.77;212617;1326;139158;-59
2021/12/09 17:49:49;;;;;;;57.30;29.10;;;;;;;1.82;66.54;98009.77;212837;1319;139968;-60
2021/12/09 17:54:53;;;;;;;61.30;30.30;;;;;;;1.79;66.27;97984.73;212331;1326;138798;-62
2021/12/09 17:59:56;;;;;;;56.70;29.30;;;;;;;1.73;66.21;97977.65;212725;1320;139190;-60
2021/12/09 18:05:00;;;;;;;60.00;30.40;;;;;;;1.63;66.08;97984.70;212896;1322;139886;-62
2021/12/09 18:10:04;;;;;;;62.00;30.30;;;;;;;1.56;66.24;97979.25;213000;1322;139810;-61
2021/12/09 18:15:11;;;;;;;102.30;59.90;;;;;;;1.50;66.25;97971.98;212797;1319;141645;-60
2021/12/09 18:20:17;;;;;;;60.40;30.40;;;;;;;1.53;66.63;97979.89;212806;1322;139089;-59
2021/12/09 18:25:22;;;;;;;64.40;30.70;;;;;;;1.52;66.55;97971.02;212971;1324;138700;-60
2021/12/09 18:30:33;;;;;;;58.10;28.80;;;;;;;1.50;66.42;97957.64;212516;1326;139297;-63
2021/12/09 18:35:39;;;;;;;55.10;27.80;;;;;;;1.45;66.38;97957.17;213034;1322;140010;-61
2021/12/09 18:40:45;;;;;;;56.40;28.60;;;;;;;1.41;66.45;97951.57;212601;1322;138882;-61
2021/12/09 18:45:49;;;;;;;57.30;28.30;;;;;;;1.37;66.47;97950.32;212690;1322;139439;-59
2021/12/09 18:50:53;;;;;;;566.00;307.00;;;;;;;1.39;66.92;97952.36;212577;1327;139360;-58
2021/12/09 18:55:56;;;;;;;71.20;31.30;;;;;;;1.58;67.37;97946.29;212902;1320;139075;-63
2021/12/09 19:01:01;;;;;;;66.20;31.90;;;;;;;1.61;66.71;97953.31;212205;1332;140532;-61
2021/12/09 19:06:09;;;;;;;65.60;32.10;;;;;;;1.65;66.70;97950.70;212716;1326;139546;-59
2021/12/09 19:11:18;;;;;;;64.40;32.20;;;;;;;1.63;66.52;97948.52;212267;1322;139239;-61
2021/12/09 19:16:37;;;;;;;63.60;32.50;;;;;;;1.62;66.63;97946.63;212401;1325;377002;-59
2021/12/09 19:21:43;;;;;;;67.00;31.20;;;;;;;1.61;66.66;97946.34;212758;1327;139579;-61
2021/12/09 19:26:51;;;;;;;70.00;35.90;;;;;;;1.62;66.57;97948.22;212242;1329;138777;-59
2021/12/09 19:31:54;;;;;;;65.10;32.10;;;;;;;1.59;66.59;97961.08;212496;1322;139251;-58
2021/12/09 19:36:57;;;;;;;65.90;31.90;;;;;;;1.52;66.54;97940.77;212521;1320;138879;-60
2021/12/09 19:42:00;;;;;;;66.20;32.70;;;;;;;1.50;66.65;97937.55;212156;1327;139282;-61
2021/12/09 19:47:04;;;;;;;64.40;31.50;;;;;;;1.48;66.54;97929.92;213057;1326;138629;-61
2021/12/09 19:52:07;;;;;;;76.30;37.90;;;;;;;1.43;66.59;97930.52;213029;1320;139634;-59
2021/12/09 19:57:10;;;;;;;93.00;41.80;;;;;;;1.44;67.17;97924.69;212471;1329;139401;-57
2021/12/09 20:02:14;;;;;;;73.60;34.30;;;;;;;1.55;67.07;97922.30;213601;1322;139568;-62
2021/12/09 20:07:18;;;;;;;70.10;34.00;;;;;;;1.62;66.92;97927.77;212745;1325;139035;-60
2021/12/09 20:12:22;;;;;;;71.20;35.60;;;;;;;1.65;66.88;97931.30;212558;1328;139480;-57
2021/12/09 20:17:26;;;;;;;74.60;36.90;;;;;;;1.70;66.87;97929.35;213410;1324;138482;-58
2021/12/09 20:22:29;;;;;;;73.60;36.60;;;;;;;1.70;66.67;97903.49;213482;1326;139188;-57
2021/12/09 20:27:32;;;;;;;73.40;34.70;;;;;;;1.66;66.65;97916.40;212504;1327;139660;-60
2021/12/09 20:32:54;;;;;;;70.00;34.70;;;;;;;1.67;66.67;97921.95;212754;1320;139252;-54
2021/12/09 20:37:58;;;;;;;72.00;34.10;;;;;;;1.63;66.68;97915.29;212525;1326;138750;-57
2021/12/09 20:43:02;;;;;;;71.30;34.90;;;;;;;1.61;66.71;97904.92;212471;1326;138799;-61
2021/12/09 20:48:05;;;;;;;75.00;37.50;;;;;;;1.65;67.17;97894.76;212842;1320;139196;-55
2021/12/09 20:53:10;;;;;;;71.20;34.20;;;;;;;1.69;66.79;97895.48;213744;1325;142253;-62
2021/12/09 20:58:22;;;;;;;82.60;36.80;;;;;;;1.61;66.61;97901.58;212898;1319;138965;-58
2021/12/09 21:03:25;;;;;;;69.60;35.90;;;;;;;1.54;66.62;97909.59;213806;1325;139070;-66
2021/12/09 21:08:29;;;;;;;71.40;35.10;;;;;;;1.46;66.69;97891.27;212756;1326;138864;-67
2021/12/09 21:13:36;;;;;;;76.30;36.00;;;;;;;1.44;66.81;97890.30;213192;1323;139788;-62
2021/12/09 21:18:45;;;;;;;72.10;34.50;;;;;;;1.46;66.85;97893.34;213454;1319;139256;-62
2021/12/09 21:23:48;;;;;;;72.90;37.10;;;;;;;1.52;66.94;97892.73;212642;1319;139186;-58
2021/12/09 21:28:56;;;;;;;80.10;37.10;;;;;;;1.58;66.98;97890.01;212692;1325;138929;-57
2021/12/09 21:34:04;;;;;;;73.80;37.40;;;;;;;1.58;66.79;97893.31;212475;1329;231340;-58
2021/12/09 21:39:08;;;;;;;78.50;37.40;;;;;;;1.58;66.91;97895.44;213221;1325;140812;-57
2021/12/09 21:44:12;;;;;;;69.80;34.50;;;;;;;1.59;67.03;97891.17;212607;1322;139678;-58
2021/12/09 21:49:17;;;;;;;67.60;34.50;;;;;;;1.60;66.90;97881.73;213319;1324;138707;-60
2021/12/09 21:54:21;;;;;;;64.40;26.40;;;;;;;1.57;66.80;97861.40;213214;1321;138837;-58
2021/12/09 21:59:24;;;;;;;74.10;35.50;;;;;;;1.56;66.88;97861.98;212717;1325;139312;-59
2021/12/09 22:04:27;;;;;;;77.30;37.20;;;;;;;1.54;66.91;97868.69;213272;1319;138672;-57
2021/12/09 22:09:36;;;;;;;72.70;35.30;;;;;;;1.54;66.98;97864.86;213366;1319;139264;-58
2021/12/09 22:14:40;;;;;;;78.50;37.90;;;;;;;1.53;67.10;97872.04;212533;1329;138766;-57
2021/12/09 22:19:44;;;;;;;73.90;35.00;;;;;;;1.54;66.94;97861.17;212549;1322;139110;-57
2021/12/09 22:24:47;;;;;;;70.90;35.10;;;;;;;1.54;67.02;97853.48;213285;1326;138520;-63
2021/12/09 22:29:50;;;;;;;73.40;35.40;;;;;;;1.53;66.87;97850.55;212388;1326;138628;-64
2021/12/09 22:34:53;;;;;;;71.90;36.10;;;;;;;1.55;67.05;97837.37;212755;1327;139063;-59
2021/12/09 22:39:56;;;;;;;74.40;37.40;;;;;;;1.62;66.94;97823.58;212520;1327;142045;-58
2021/12/09 22:45:00;;;;;;;80.60;38.10;;;;;;;1.68;67.10;97814.73;213023;1320;138570;-59
2021/12/09 22:50:06;;;;;;;76.30;36.90;;;;;;;1.73;67.10;97807.52;213084;1324;139265;-60
2021/12/09 22:55:12;;;;;;;72.30;36.80;;;;;;;1.75;67.00;97799.08;212913;1319;139174;-59
2021/12/09 23:00:42;;;;;;;78.20;37.90;;;;;;;1.73;66.95;97787.08;213047;1321;138961;-57
2021/12/09 23:05:48;;;;;;;83.00;38.80;;;;;;;1.69;66.95;97780.42;212115;1325;138820;-60
2021/12/09 23:10:53;;;;;;;79.40;37.10;;;;;;;1.69;66.99;97780.27;212331;1324;138956;-58
2021/12/09 23:15:57;;;;;;;77.90;37.30;;;;;;;1.67;66.89;97788.94;213127;1319;139577;-59
2021/12/09 23:21:00;;;;;;;81.60;38.10;;;;;;;1.62;66.82;97789.84;213118;1324;139538;-61
2021/12/09 23:26:04;;;;;;;73.00;36.30;;;;;;;1.60;66.86;97760.06;213233;1319;139010;-60
2021/12/09 23:31:11;;;;;;;80.50;38.30;;;;;;;1.58;67.04;97762.40;213436;1320;139059;-59
2021/12/09 23:36:14;;;;;;;83.90;37.90;;;;;;;1.56;67.03;97782.43;213146;1324;140390;-60
2021/12/09 23:41:17;;;;;;;81.10;36.60;;;;;;;1.56;67.22;97791.00;212993;1324;139824;-60
2021/12/09 23:46:22;;;;;;;77.20;35.30;;;;;;;1.57;67.11;97783.59;213311;1317;139679;-60
2021/12/09 23:51:25;;;;;;;78.80;39.00;;;;;;;1.65;67.09;97791.81;212917;1320;140837;-57
2021/12/09 23:56:29;;;;;;;74.40;36.70;;;;;;;1.70;67.23;97786.34;213238;1322;139483;-58
